createdAt,value
2016-12-17T00:00:48.277Z,0
2016-12-17T00:01:48.289Z,0
2016-12-17T00:02:48.304Z,0
2016-12-17T00:04:03.234Z,0
2016-12-17T00:04:48.330Z,0
2016-12-17T00:05:48.342Z,0
2016-12-17T00:07:03.275Z,0
2016-12-17T00:07:48.373Z,0
2016-12-17T00:08:48.380Z,0
2016-12-17T00:10:03.311Z,0
2016-12-17T00:10:48.409Z,0
2016-12-17T00:11:48.420Z,0
2016-12-17T00:12:48.434Z,0
2016-12-17T00:13:48.446Z,0
2016-12-17T00:15:48.470Z,0
2016-12-17T00:16:48.488Z,0
2016-12-17T00:17:48.499Z,0
2016-12-17T00:18:48.520Z,0
2016-12-17T00:20:03.444Z,0
2016-12-17T00:20:48.540Z,0
2016-12-17T00:21:48.556Z,0
2016-12-17T00:23:03.516Z,0
2016-12-17T00:23:48.575Z,0
2016-12-17T00:25:03.508Z,0
2016-12-17T00:25:48.602Z,0
2016-12-17T00:26:48.615Z,0
2016-12-17T00:27:48.631Z,0
2016-12-17T00:28:48.648Z,0
2016-12-17T00:31:03.586Z,0
2016-12-17T00:31:48.682Z,0
2016-12-17T00:32:48.743Z,0
2016-12-17T00:33:48.712Z,0
2016-12-17T00:35:03.639Z,0
2016-12-17T00:35:48.734Z,0
2016-12-17T00:36:48.747Z,0
2016-12-17T00:37:48.758Z,0
2016-12-17T00:38:48.776Z,0
2016-12-17T00:39:48.789Z,0
2016-12-17T00:40:48.797Z,0
2016-12-17T00:41:48.812Z,0
2016-12-17T00:42:48.826Z,0
2016-12-17T00:43:48.841Z,0
2016-12-17T00:44:48.850Z,0
2016-12-17T00:46:03.784Z,0
2016-12-17T00:46:48.879Z,0
2016-12-17T00:48:48.903Z,0
2016-12-17T00:49:48.913Z,0
2016-12-17T00:50:48.930Z,0
2016-12-17T00:51:48.942Z,0
2016-12-17T00:52:48.952Z,0
2016-12-17T00:53:48.964Z,0
2016-12-17T00:54:48.979Z,0
2016-12-17T00:56:03.911Z,0
2016-12-17T00:56:49.007Z,0
2016-12-17T00:57:49.018Z,0
2016-12-17T00:59:49.043Z,0
2016-12-17T01:00:49.157Z,0
2016-12-17T01:02:03.988Z,0
2016-12-17T01:03:04.001Z,0
2016-12-17T01:03:49.095Z,0
2016-12-17T01:04:49.161Z,0
2016-12-17T01:05:49.121Z,0
2016-12-17T01:07:04.051Z,0
2016-12-17T01:07:49.149Z,0
2016-12-17T01:08:49.161Z,0
2016-12-17T01:09:49.173Z,0
2016-12-17T01:10:49.488Z,0
2016-12-17T01:11:49.200Z,0
2016-12-17T01:12:49.218Z,0
2016-12-17T01:13:49.231Z,0
2016-12-17T01:14:49.234Z,0
2016-12-17T01:15:49.255Z,0
2016-12-17T01:16:49.292Z,0
2016-12-17T01:18:04.194Z,0
2016-12-17T01:19:49.307Z,0
2016-12-17T01:20:49.315Z,0
2016-12-17T01:21:49.326Z,0
2016-12-17T01:23:04.256Z,0
2016-12-17T01:23:49.349Z,0
2016-12-17T01:24:49.364Z,0
2016-12-17T01:25:49.374Z,0
2016-12-17T01:26:49.391Z,0
2016-12-17T01:27:49.402Z,0
2016-12-17T01:28:49.418Z,0
2016-12-17T01:29:49.479Z,0
2016-12-17T01:30:49.443Z,0
2016-12-17T01:31:49.450Z,0
2016-12-17T01:32:49.468Z,0
2016-12-17T01:33:49.475Z,0
2016-12-17T01:35:04.409Z,0
2016-12-17T01:35:49.502Z,0
2016-12-17T01:36:49.517Z,0
2016-12-17T01:37:49.534Z,0
2016-12-17T01:39:04.770Z,0
2016-12-17T01:39:49.553Z,0
2016-12-17T01:40:49.567Z,0
2016-12-17T01:41:49.606Z,0
2016-12-17T01:43:04.513Z,0
2016-12-17T01:43:49.611Z,0
2016-12-17T01:45:04.536Z,0
2016-12-17T01:46:04.548Z,0
2016-12-17T01:46:49.643Z,0
2016-12-17T01:47:49.657Z,0
2016-12-17T01:48:49.674Z,0
2016-12-17T01:49:49.681Z,0
2016-12-17T01:50:49.697Z,0
2016-12-17T01:51:49.735Z,0
2016-12-17T01:52:49.725Z,0
2016-12-17T01:53:49.785Z,0
2016-12-17T01:55:04.664Z,0
2016-12-17T01:55:49.761Z,0
2016-12-17T01:56:49.771Z,0
2016-12-17T01:57:49.784Z,0
2016-12-17T01:58:49.798Z,0
2016-12-17T02:00:04.729Z,0
2016-12-17T02:01:04.741Z,0
2016-12-17T02:01:49.838Z,0
2016-12-17T02:02:49.849Z,0
2016-12-17T02:03:49.860Z,0
2016-12-17T02:04:49.875Z,0
2016-12-17T02:05:49.891Z,0
2016-12-17T02:06:50.200Z,0
2016-12-17T02:07:49.915Z,0
2016-12-17T02:08:50.234Z,0
2016-12-17T02:10:04.860Z,0
2016-12-17T02:10:49.953Z,0
2016-12-17T02:11:50.016Z,0
2016-12-17T02:12:49.979Z,0
2016-12-17T02:13:49.992Z,0
2016-12-17T02:14:50.008Z,0
2016-12-17T02:15:50.017Z,0
2016-12-17T02:16:50.035Z,0
2016-12-17T02:17:50.041Z,0
2016-12-17T02:18:50.083Z,0
2016-12-17T02:19:50.119Z,0
2016-12-17T02:20:50.082Z,0
2016-12-17T02:22:50.109Z,0
2016-12-17T02:23:50.121Z,0
2016-12-17T02:24:50.133Z,0
2016-12-17T02:25:50.147Z,0
2016-12-17T02:26:50.165Z,0
2016-12-17T02:27:50.174Z,0
2016-12-17T02:28:50.186Z,0
2016-12-17T02:29:50.196Z,0
2016-12-17T02:31:05.133Z,0
2016-12-17T02:31:50.224Z,0
2016-12-17T02:32:50.238Z,0
2016-12-17T02:33:50.251Z,0
2016-12-17T02:34:50.261Z,0
2016-12-17T02:35:50.281Z,0
2016-12-17T02:36:50.311Z,0
2016-12-17T02:38:05.220Z,0
2016-12-17T02:38:50.311Z,0
2016-12-17T02:39:50.355Z,0
2016-12-17T02:40:50.339Z,0
2016-12-17T02:42:05.268Z,0
2016-12-17T02:42:50.364Z,0
2016-12-17T02:43:50.379Z,0
2016-12-17T02:44:50.389Z,0
2016-12-17T02:45:50.401Z,0
2016-12-17T02:47:05.333Z,0
2016-12-17T02:47:50.429Z,0
2016-12-17T02:49:05.358Z,0
2016-12-17T02:50:50.466Z,0
2016-12-17T02:51:50.479Z,0
2016-12-17T02:52:50.497Z,0
2016-12-17T02:53:50.507Z,0
2016-12-17T02:54:50.525Z,0
2016-12-17T02:55:50.833Z,0
2016-12-17T02:56:50.550Z,0
2016-12-17T02:58:05.475Z,0
2016-12-17T02:58:50.574Z,0
2016-12-17T02:59:50.586Z,0
2016-12-17T03:00:50.598Z,0
2016-12-17T03:01:50.609Z,0
2016-12-17T03:02:50.627Z,0
2016-12-17T03:03:50.666Z,0
2016-12-17T03:05:05.566Z,0
2016-12-17T03:05:50.666Z,0
2016-12-17T03:06:50.728Z,0
2016-12-17T03:08:05.606Z,0
2016-12-17T03:09:05.621Z,0
2016-12-17T03:09:50.717Z,0
2016-12-17T03:10:50.728Z,0
2016-12-17T03:11:50.740Z,0
2016-12-17T03:12:50.755Z,0
2016-12-17T03:14:05.683Z,0
2016-12-17T03:14:50.782Z,0
2016-12-17T03:15:51.103Z,0
2016-12-17T03:16:50.806Z,0
2016-12-17T03:17:50.847Z,0
2016-12-17T03:18:50.832Z,0
2016-12-17T03:19:50.844Z,0
2016-12-17T03:21:05.776Z,0
2016-12-17T03:22:50.885Z,0
2016-12-17T03:23:50.898Z,0
2016-12-17T03:24:50.915Z,0
2016-12-17T03:25:50.926Z,0
2016-12-17T03:26:50.939Z,0
2016-12-17T03:27:50.953Z,0
2016-12-17T03:28:50.966Z,0
2016-12-17T03:30:05.896Z,0
2016-12-17T03:30:51.015Z,0
2016-12-17T03:31:51.004Z,0
2016-12-17T03:33:05.940Z,0
2016-12-17T03:33:51.035Z,0
2016-12-17T03:34:51.046Z,0
2016-12-17T03:35:51.089Z,0
2016-12-17T03:36:51.073Z,0
2016-12-17T03:37:51.093Z,0
2016-12-17T03:39:06.023Z,0
2016-12-17T03:39:51.114Z,0
2016-12-17T03:40:51.166Z,0
2016-12-17T03:41:51.141Z,0
2016-12-17T03:43:51.168Z,0
2016-12-17T03:45:06.100Z,0
2016-12-17T03:45:51.197Z,0
2016-12-17T03:46:51.521Z,0
2016-12-17T03:47:51.222Z,0
2016-12-17T03:48:51.237Z,0
2016-12-17T03:49:51.260Z,0
2016-12-17T03:50:51.570Z,0
2016-12-17T03:51:51.280Z,0
2016-12-17T03:52:51.292Z,0
2016-12-17T03:53:51.305Z,0
2016-12-17T03:54:51.317Z,0
2016-12-17T03:55:51.340Z,0
2016-12-17T03:56:51.348Z,0
2016-12-17T03:57:51.361Z,0
2016-12-17T03:58:51.374Z,0
2016-12-17T03:59:51.729Z,0
2016-12-17T04:00:51.408Z,0
2016-12-17T04:01:51.418Z,0
2016-12-17T04:02:51.429Z,0
2016-12-17T04:03:51.442Z,0
2016-12-17T04:04:51.454Z,0
2016-12-17T04:05:51.467Z,0
2016-12-17T04:06:51.481Z,0
2016-12-17T04:07:51.496Z,0
2016-12-17T04:08:51.513Z,0
2016-12-17T04:09:51.522Z,0
2016-12-17T04:10:51.544Z,0
2016-12-17T04:12:06.471Z,0
2016-12-17T04:13:06.484Z,0
2016-12-17T04:13:51.581Z,0
2016-12-17T04:15:51.608Z,0
2016-12-17T04:17:06.538Z,0
2016-12-17T04:17:51.639Z,0
2016-12-17T04:18:51.652Z,0
2016-12-17T04:19:51.665Z,0
2016-12-17T04:20:51.677Z,0
2016-12-17T04:21:51.691Z,0
2016-12-17T04:22:51.706Z,0
2016-12-17T04:23:51.718Z,0
2016-12-17T04:24:51.735Z,0
2016-12-17T04:25:51.744Z,0
2016-12-17T04:26:51.760Z,0
2016-12-17T04:28:06.690Z,0
2016-12-17T04:29:51.805Z,0
2016-12-17T04:30:51.821Z,0
2016-12-17T04:31:51.832Z,0
2016-12-17T04:33:06.760Z,0
2016-12-17T04:33:51.855Z,0
2016-12-17T04:34:51.871Z,0
2016-12-17T04:35:51.886Z,0
2016-12-17T04:36:51.900Z,0
2016-12-17T04:37:51.912Z,0
2016-12-17T04:38:51.923Z,0
2016-12-17T04:40:06.858Z,0
2016-12-17T04:40:51.959Z,0
2016-12-17T04:41:51.969Z,0
2016-12-17T04:42:51.982Z,0
2016-12-17T04:43:51.995Z,0
2016-12-17T04:44:52.017Z,0
2016-12-17T04:45:52.022Z,0
2016-12-17T04:47:52.054Z,0
2016-12-17T04:49:06.992Z,0
2016-12-17T04:49:52.077Z,0
2016-12-17T04:50:52.095Z,0
2016-12-17T04:51:52.110Z,0
2016-12-17T04:52:52.123Z,0
2016-12-17T04:53:52.136Z,0
2016-12-17T04:54:52.188Z,0
2016-12-17T04:55:52.164Z,0
2016-12-17T04:57:52.194Z,0
2016-12-17T04:59:07.128Z,0
2016-12-17T04:59:52.219Z,0
2016-12-17T05:00:52.238Z,0
2016-12-17T05:02:52.269Z,0
2016-12-17T05:03:52.593Z,0
2016-12-17T05:05:07.211Z,0
2016-12-17T05:05:52.306Z,0
2016-12-17T05:06:52.323Z,0
2016-12-17T05:07:52.335Z,0
2016-12-17T05:08:52.349Z,0
2016-12-17T05:10:07.287Z,0
2016-12-17T05:10:52.379Z,0
2016-12-17T05:13:07.322Z,0
2016-12-17T05:13:52.421Z,0
2016-12-17T05:14:52.432Z,0
2016-12-17T05:16:07.365Z,0
2016-12-17T05:17:52.482Z,0
2016-12-17T05:18:52.492Z,0
2016-12-17T05:20:07.423Z,0
2016-12-17T05:20:52.574Z,0
2016-12-17T05:22:07.505Z,0
2016-12-17T05:22:52.549Z,0
2016-12-17T05:23:52.567Z,0
2016-12-17T05:24:52.581Z,0
2016-12-17T05:25:52.589Z,0
2016-12-17T05:26:52.606Z,0
2016-12-17T05:28:07.536Z,0
2016-12-17T05:28:52.640Z,0
2016-12-17T05:29:52.648Z,0
2016-12-17T05:31:07.604Z,0
2016-12-17T05:31:52.681Z,0
2016-12-17T05:33:07.608Z,0
2016-12-17T05:33:52.705Z,0
2016-12-17T05:34:52.722Z,0
2016-12-17T05:35:52.736Z,0
2016-12-17T05:36:52.748Z,0
2016-12-17T05:37:52.765Z,0
2016-12-17T05:38:52.779Z,0
2016-12-17T05:39:52.794Z,0
2016-12-17T05:40:52.808Z,0
2016-12-17T05:41:52.819Z,0
2016-12-17T05:43:07.756Z,0
2016-12-17T05:43:52.848Z,0
2016-12-17T05:44:52.865Z,0
2016-12-17T05:45:52.891Z,0
2016-12-17T05:47:07.811Z,0
2016-12-17T05:47:52.904Z,0
2016-12-17T05:48:52.926Z,0
2016-12-17T05:49:52.939Z,0
2016-12-17T05:50:52.952Z,0
2016-12-17T05:52:07.880Z,0
2016-12-17T05:52:52.979Z,0
2016-12-17T05:53:52.994Z,0
2016-12-17T05:54:53.005Z,0
2016-12-17T05:55:53.019Z,0
2016-12-17T05:56:53.040Z,0
2016-12-17T05:57:53.046Z,0
2016-12-17T05:59:07.981Z,0
2016-12-17T06:00:07.994Z,0
2016-12-17T06:00:53.094Z,0
2016-12-17T06:01:53.107Z,0
2016-12-17T06:03:08.039Z,0
2016-12-17T06:03:53.138Z,0
2016-12-17T06:04:53.147Z,0
2016-12-17T06:06:53.179Z,0
2016-12-17T06:08:08.113Z,0
2016-12-17T06:08:53.209Z,0
2016-12-17T06:09:53.223Z,0
2016-12-17T06:10:53.237Z,0
2016-12-17T06:11:53.253Z,0
2016-12-17T06:12:53.265Z,0
2016-12-17T06:13:53.278Z,0
2016-12-17T06:14:53.293Z,0
2016-12-17T06:15:53.312Z,0
2016-12-17T06:16:53.323Z,0
2016-12-17T06:17:53.345Z,0
2016-12-17T06:18:53.364Z,0
2016-12-17T06:19:53.371Z,0
2016-12-17T06:20:53.383Z,0
2016-12-17T06:21:53.400Z,0
2016-12-17T06:22:53.412Z,0
2016-12-17T06:24:08.340Z,0
2016-12-17T06:24:53.447Z,0
2016-12-17T06:25:53.459Z,0
2016-12-17T06:26:53.468Z,0
2016-12-17T06:27:53.482Z,0
2016-12-17T06:29:08.416Z,0
2016-12-17T06:29:53.518Z,0
2016-12-17T06:31:08.763Z,0
2016-12-17T06:31:53.541Z,0
2016-12-17T06:32:53.556Z,0
2016-12-17T06:33:53.570Z,0
2016-12-17T06:34:53.583Z,0
2016-12-17T06:35:53.632Z,0
2016-12-17T06:36:53.616Z,0
2016-12-17T06:37:53.627Z,0
2016-12-17T06:38:53.643Z,0
2016-12-17T06:40:08.573Z,0
2016-12-17T06:40:53.673Z,0
2016-12-17T06:41:53.716Z,0
2016-12-17T06:42:53.699Z,0
2016-12-17T06:43:53.723Z,0
2016-12-17T06:44:53.729Z,0
2016-12-17T06:45:53.771Z,4
2016-12-17T06:46:53.759Z,4
2016-12-17T06:47:53.774Z,0
2016-12-17T06:48:53.784Z,0
2016-12-17T06:49:53.802Z,4
2016-12-17T06:51:08.733Z,4
2016-12-17T06:51:53.831Z,8
2016-12-17T06:52:53.845Z,4
2016-12-17T06:53:54.166Z,8
2016-12-17T06:55:08.795Z,4
2016-12-17T06:55:53.889Z,8
2016-12-17T06:56:53.904Z,8
2016-12-17T06:57:53.919Z,8
2016-12-17T06:58:53.935Z,8
2016-12-17T07:00:08.866Z,12
2016-12-17T07:00:53.966Z,12
2016-12-17T07:01:53.976Z,12
2016-12-17T07:02:53.992Z,16
2016-12-17T07:03:54.006Z,20
2016-12-17T07:05:54.037Z,20
2016-12-17T07:06:54.100Z,24
2016-12-17T07:07:54.063Z,24
2016-12-17T07:08:54.383Z,28
2016-12-17T07:10:54.108Z,32
2016-12-17T07:11:54.173Z,36
2016-12-17T07:12:54.141Z,36
2016-12-17T07:14:09.072Z,40
2016-12-17T07:14:54.169Z,44
2016-12-17T07:15:54.182Z,48
2016-12-17T07:16:54.198Z,48
2016-12-17T07:17:54.217Z,52
2016-12-17T07:18:54.222Z,52
2016-12-17T07:19:54.241Z,56
2016-12-17T07:20:54.564Z,60
2016-12-17T07:22:09.185Z,64
2016-12-17T07:23:09.201Z,68
2016-12-17T07:24:54.313Z,76
2016-12-17T07:25:54.327Z,80
2016-12-17T07:27:09.292Z,88
2016-12-17T07:27:54.386Z,92
2016-12-17T07:28:54.374Z,100
2016-12-17T07:29:54.387Z,104
2016-12-17T07:30:54.400Z,108
2016-12-17T07:31:54.424Z,112
2016-12-17T07:32:54.429Z,112
2016-12-17T07:34:54.458Z,112
2016-12-17T07:35:54.474Z,116
2016-12-17T07:37:54.525Z,132
2016-12-17T07:38:54.826Z,136
2016-12-17T07:39:54.532Z,144
2016-12-17T07:40:54.547Z,148
2016-12-17T07:41:54.584Z,152
2016-12-17T07:43:09.493Z,156
2016-12-17T07:43:54.587Z,160
2016-12-17T07:44:54.607Z,164
2016-12-17T07:45:54.617Z,164
2016-12-17T07:46:54.634Z,168
2016-12-17T07:48:09.571Z,168
2016-12-17T07:48:54.661Z,168
2016-12-17T07:49:54.675Z,176
2016-12-17T07:50:54.692Z,184
2016-12-17T07:51:54.706Z,188
2016-12-17T07:52:54.720Z,192
2016-12-17T07:53:54.738Z,188
2016-12-17T07:54:54.752Z,196
2016-12-17T07:56:54.785Z,200
2016-12-17T07:57:54.797Z,200
2016-12-17T07:59:09.725Z,204
2016-12-17T07:59:54.827Z,208
2016-12-17T08:00:54.837Z,216
2016-12-17T08:01:54.857Z,228
2016-12-17T08:02:54.871Z,236
2016-12-17T08:03:54.880Z,252
2016-12-17T08:04:54.901Z,260
2016-12-17T08:05:54.913Z,268
2016-12-17T08:06:54.927Z,272
2016-12-17T08:07:54.946Z,272
2016-12-17T08:08:54.955Z,276
2016-12-17T08:09:54.969Z,288
2016-12-17T08:10:55.016Z,292
2016-12-17T08:11:55.009Z,292
2016-12-17T08:12:55.015Z,296
2016-12-17T08:13:55.028Z,312
2016-12-17T08:15:09.965Z,328
2016-12-17T08:15:55.062Z,340
2016-12-17T08:16:55.082Z,344
2016-12-17T08:17:55.089Z,348
2016-12-17T08:19:10.024Z,364
2016-12-17T08:19:55.126Z,368
2016-12-17T08:21:55.149Z,384
2016-12-17T08:23:10.079Z,404
2016-12-17T08:23:55.201Z,420
2016-12-17T08:24:55.193Z,432
2016-12-17T08:25:55.212Z,452
2016-12-17T08:26:55.223Z,460
2016-12-17T08:27:55.240Z,460
2016-12-17T08:28:55.252Z,468
2016-12-17T08:30:10.185Z,480
2016-12-17T08:30:55.282Z,492
2016-12-17T08:31:55.297Z,480
2016-12-17T08:32:55.312Z,476
2016-12-17T08:34:10.246Z,492
2016-12-17T08:34:55.340Z,512
2016-12-17T08:35:55.404Z,508
2016-12-17T08:36:55.675Z,524
2016-12-17T08:37:55.384Z,540
2016-12-17T08:39:10.315Z,544
2016-12-17T08:41:10.351Z,536
2016-12-17T08:41:55.447Z,528
2016-12-17T08:42:55.457Z,528
2016-12-17T08:43:55.475Z,516
2016-12-17T08:44:55.488Z,504
2016-12-17T08:45:55.506Z,516
2016-12-17T08:46:55.520Z,508
2016-12-17T08:47:55.534Z,496
2016-12-17T08:48:55.554Z,512
2016-12-17T08:49:55.562Z,500
2016-12-17T08:50:55.576Z,480
2016-12-17T08:52:55.617Z,504
2016-12-17T08:53:55.620Z,500
2016-12-17T08:57:10.584Z,508
2016-12-17T08:58:55.721Z,552
2016-12-17T08:59:56.017Z,556
2016-12-17T09:00:56.028Z,552
2016-12-17T09:02:10.661Z,584
2016-12-17T09:02:55.754Z,588
2016-12-17T09:03:55.791Z,612
2016-12-17T09:04:55.787Z,636
2016-12-17T09:06:10.719Z,628
2016-12-17T09:06:55.815Z,624
2016-12-17T09:08:10.747Z,632
2016-12-17T09:08:55.844Z,644
2016-12-17T09:09:55.858Z,656
2016-12-17T09:10:55.875Z,668
2016-12-17T09:11:55.937Z,708
2016-12-17T09:13:10.820Z,716
2016-12-17T09:14:55.935Z,752
2016-12-17T09:15:55.947Z,748
2016-12-17T09:16:55.964Z,752
2016-12-17T09:18:10.896Z,760
2016-12-17T09:18:55.990Z,748
2016-12-17T09:19:56.004Z,752
2016-12-17T09:20:56.048Z,752
2016-12-17T09:21:56.088Z,732
2016-12-17T09:22:56.048Z,736
2016-12-17T09:23:56.071Z,764
2016-12-17T09:24:56.077Z,752
2016-12-17T09:25:56.095Z,712
2016-12-17T09:26:56.106Z,740
2016-12-17T09:27:56.124Z,748
2016-12-17T09:28:56.173Z,772
2016-12-17T09:30:56.165Z,796
2016-12-17T09:31:56.188Z,800
2016-12-17T09:32:56.204Z,804
2016-12-17T09:34:11.131Z,828
2016-12-17T09:34:56.232Z,832
2016-12-17T09:35:56.246Z,812
2016-12-17T09:36:56.257Z,784
2016-12-17T09:37:56.274Z,768
2016-12-17T09:38:56.286Z,772
2016-12-17T09:39:56.303Z,780
2016-12-17T09:40:56.322Z,768
2016-12-17T09:41:56.331Z,772
2016-12-17T09:42:56.395Z,764
2016-12-17T09:43:56.361Z,780
2016-12-17T09:45:11.294Z,784
2016-12-17T09:45:56.390Z,768
2016-12-17T09:46:56.404Z,756
2016-12-17T09:47:56.418Z,756
2016-12-17T09:48:56.433Z,756
2016-12-17T09:50:11.367Z,768
2016-12-17T09:50:56.464Z,788
2016-12-17T09:51:56.479Z,832
2016-12-17T09:52:56.492Z,868
2016-12-17T09:53:56.512Z,856
2016-12-17T09:54:56.525Z,844
2016-12-17T09:55:56.544Z,872
2016-12-17T09:56:56.555Z,908
2016-12-17T09:57:56.574Z,936
2016-12-17T09:58:56.594Z,932
2016-12-17T10:00:56.613Z,1060
2016-12-17T10:01:56.627Z,1112
2016-12-17T10:02:56.648Z,1140
2016-12-17T10:03:56.660Z,1220
2016-12-17T10:05:11.593Z,1224
2016-12-17T10:05:56.688Z,1276
2016-12-17T10:06:56.709Z,1228
2016-12-17T10:07:56.717Z,1148
2016-12-17T10:08:56.734Z,1028
2016-12-17T10:09:56.748Z,1012
2016-12-17T10:10:56.761Z,972
2016-12-17T10:12:11.695Z,968
2016-12-17T10:12:56.793Z,968
2016-12-17T10:13:56.805Z,960
2016-12-17T10:17:56.866Z,968
2016-12-17T10:18:56.984Z,992
2016-12-17T10:19:56.897Z,1016
2016-12-17T10:20:56.960Z,1024
2016-12-17T10:21:57.244Z,1032
2016-12-17T10:22:56.944Z,1012
2016-12-17T10:23:56.955Z,1020
2016-12-17T10:24:56.971Z,988
2016-12-17T10:25:56.985Z,952
2016-12-17T10:27:11.919Z,940
2016-12-17T10:27:57.016Z,964
2016-12-17T10:29:11.946Z,1032
2016-12-17T10:29:57.076Z,1076
2016-12-17T10:31:57.080Z,1100
2016-12-17T10:33:12.009Z,1168
2016-12-17T10:33:57.411Z,1164
2016-12-17T10:34:57.172Z,1220
2016-12-17T10:35:57.138Z,1248
2016-12-17T10:37:12.066Z,1272
2016-12-17T10:37:57.167Z,1284
2016-12-17T10:38:57.180Z,1236
2016-12-17T10:39:57.192Z,1236
2016-12-17T10:40:57.208Z,1292
2016-12-17T10:41:57.225Z,1312
2016-12-17T10:42:57.242Z,1256
2016-12-17T10:44:12.171Z,1216
2016-12-17T10:44:57.275Z,1200
2016-12-17T10:46:57.299Z,1092
2016-12-17T10:49:12.252Z,1124
2016-12-17T10:49:57.349Z,1212
2016-12-17T10:51:57.375Z,1380
2016-12-17T10:53:12.306Z,1368
2016-12-17T10:53:57.406Z,1336
2016-12-17T10:55:12.341Z,1284
2016-12-17T10:55:57.434Z,1240
2016-12-17T10:56:57.454Z,1164
2016-12-17T10:57:57.463Z,1104
2016-12-17T10:58:57.481Z,1120
2016-12-17T10:59:57.495Z,1140
2016-12-17T11:01:12.425Z,1164
2016-12-17T11:01:57.523Z,1184
2016-12-17T11:02:57.538Z,1212
2016-12-17T11:04:12.472Z,1156
2016-12-17T11:04:57.570Z,1108
2016-12-17T11:06:12.500Z,1128
2016-12-17T11:06:57.603Z,1132
2016-12-17T11:07:57.614Z,1128
2016-12-17T11:09:12.552Z,1136
2016-12-17T11:09:57.661Z,1136
2016-12-17T11:10:57.658Z,1152
2016-12-17T11:11:57.679Z,1148
2016-12-17T11:12:57.687Z,1164
2016-12-17T11:13:57.708Z,1220
2016-12-17T11:15:12.637Z,1240
2016-12-17T11:15:57.733Z,1236
2016-12-17T11:16:57.749Z,1244
2016-12-17T11:17:57.765Z,1280
2016-12-17T11:18:57.784Z,1296
2016-12-17T11:20:57.815Z,1256
2016-12-17T11:21:57.822Z,1240
2016-12-17T11:22:57.840Z,1224
2016-12-17T11:23:57.859Z,1192
2016-12-17T11:25:13.091Z,1192
2016-12-17T11:25:57.884Z,1204
2016-12-17T11:26:57.919Z,1220
2016-12-17T11:27:58.066Z,1188
2016-12-17T11:28:57.930Z,1164
2016-12-17T11:29:57.944Z,1136
2016-12-17T11:31:12.878Z,1120
2016-12-17T11:31:57.976Z,1108
2016-12-17T11:32:57.991Z,1088
2016-12-17T11:33:58.006Z,1088
2016-12-17T11:34:58.019Z,1088
2016-12-17T11:35:58.041Z,1088
2016-12-17T11:36:58.054Z,1084
2016-12-17T11:37:58.065Z,1088
2016-12-17T11:38:58.088Z,1104
2016-12-17T11:40:13.016Z,1104
2016-12-17T11:40:58.114Z,1088
2016-12-17T11:41:58.129Z,1040
2016-12-17T11:42:58.145Z,1060
2016-12-17T11:43:58.164Z,1056
2016-12-17T11:44:58.177Z,1024
2016-12-17T11:45:58.197Z,944
2016-12-17T11:46:58.205Z,856
2016-12-17T11:48:13.187Z,816
2016-12-17T11:48:58.235Z,856
2016-12-17T11:49:58.248Z,904
2016-12-17T11:50:58.567Z,888
2016-12-17T11:51:58.281Z,908
2016-12-17T11:52:58.296Z,896
2016-12-17T11:53:58.361Z,944
2016-12-17T11:54:58.328Z,916
2016-12-17T11:55:58.340Z,860
2016-12-17T11:56:58.379Z,772
2016-12-17T11:57:58.671Z,696
2016-12-17T11:59:58.413Z,824
2016-12-17T12:00:58.419Z,772
2016-12-17T12:01:58.439Z,796
2016-12-17T12:02:58.500Z,816
2016-12-17T12:03:58.463Z,952
2016-12-17T12:04:58.479Z,1024
2016-12-17T12:05:58.494Z,1084
2016-12-17T12:06:58.506Z,1048
2016-12-17T12:08:58.539Z,1120
2016-12-17T12:09:58.554Z,1120
2016-12-17T12:10:58.570Z,1120
2016-12-17T12:12:13.502Z,1144
2016-12-17T12:12:58.599Z,1148
2016-12-17T12:13:58.617Z,1164
2016-12-17T12:14:58.629Z,1168
2016-12-17T12:15:58.947Z,1164
2016-12-17T12:16:58.660Z,1128
2016-12-17T12:17:58.679Z,1104
2016-12-17T12:19:58.715Z,1116
2016-12-17T12:20:58.782Z,1072
2016-12-17T12:21:58.737Z,1064
2016-12-17T12:23:13.670Z,1088
2016-12-17T12:23:58.768Z,1080
2016-12-17T12:24:58.783Z,1120
2016-12-17T12:25:58.797Z,1132
2016-12-17T12:26:58.818Z,1144
2016-12-17T12:28:13.747Z,1140
2016-12-17T12:28:58.843Z,1124
2016-12-17T12:29:58.858Z,1132
2016-12-17T12:30:58.873Z,1140
2016-12-17T12:31:58.893Z,1136
2016-12-17T12:32:58.907Z,1128
2016-12-17T12:33:58.921Z,1124
2016-12-17T12:34:58.934Z,1080
2016-12-17T12:38:13.900Z,1048
2016-12-17T12:39:59.017Z,1028
2016-12-17T12:40:59.030Z,1056
2016-12-17T12:42:59.059Z,1064
2016-12-17T12:44:13.992Z,1048
2016-12-17T12:44:59.087Z,1008
2016-12-17T12:45:59.104Z,976
2016-12-17T12:46:59.122Z,956
2016-12-17T12:47:59.135Z,924
2016-12-17T12:48:59.149Z,908
2016-12-17T12:49:59.168Z,864
2016-12-17T12:50:59.181Z,820
2016-12-17T12:51:59.196Z,808
2016-12-17T12:52:59.212Z,784
2016-12-17T12:53:59.227Z,788
2016-12-17T12:55:14.160Z,824
2016-12-17T12:55:59.260Z,828
2016-12-17T12:56:59.276Z,804
2016-12-17T12:57:59.290Z,844
2016-12-17T12:58:59.302Z,828
2016-12-17T13:00:14.243Z,792
2016-12-17T13:00:59.334Z,768
2016-12-17T13:01:59.355Z,740
2016-12-17T13:02:59.364Z,744
2016-12-17T13:03:59.382Z,736
2016-12-17T13:04:59.401Z,756
2016-12-17T13:05:59.412Z,760
2016-12-17T13:06:59.425Z,744
2016-12-17T13:07:59.442Z,744
2016-12-17T13:08:59.458Z,720
2016-12-17T13:09:59.479Z,716
2016-12-17T13:10:59.795Z,712
2016-12-17T13:11:59.511Z,716
2016-12-17T13:13:59.535Z,684
2016-12-17T13:15:14.470Z,652
2016-12-17T13:15:59.880Z,636
2016-12-17T13:16:59.585Z,604
2016-12-17T13:17:59.601Z,580
2016-12-17T13:18:59.619Z,564
2016-12-17T13:19:59.679Z,564
2016-12-17T13:21:14.563Z,572
2016-12-17T13:21:59.664Z,596
2016-12-17T13:22:59.675Z,620
2016-12-17T13:23:59.691Z,620
2016-12-17T13:24:59.709Z,596
2016-12-17T13:26:14.650Z,572
2016-12-17T13:27:14.654Z,552
2016-12-17T13:28:14.669Z,540
2016-12-17T13:28:59.767Z,524
2016-12-17T13:29:59.787Z,524
2016-12-17T13:30:59.799Z,508
2016-12-17T13:31:59.813Z,500
2016-12-17T13:32:59.834Z,472
2016-12-17T13:33:59.849Z,484
2016-12-17T13:34:59.867Z,484
2016-12-17T13:35:59.878Z,480
2016-12-17T13:36:59.894Z,472
2016-12-17T13:37:59.906Z,472
2016-12-17T13:38:59.923Z,460
2016-12-17T13:39:59.939Z,444
2016-12-17T13:41:59.971Z,424
2016-12-17T13:42:59.982Z,408
2016-12-17T13:44:00.002Z,396
2016-12-17T13:45:00.014Z,380
2016-12-17T13:46:00.054Z,372
2016-12-17T13:47:14.965Z,368
2016-12-17T13:48:00.063Z,360
2016-12-17T13:49:00.074Z,360
2016-12-17T13:50:00.093Z,352
2016-12-17T13:51:00.413Z,336
2016-12-17T13:52:00.127Z,328
2016-12-17T13:53:00.140Z,308
2016-12-17T13:54:00.153Z,308
2016-12-17T13:55:00.169Z,304
2016-12-17T13:56:00.183Z,296
2016-12-17T13:57:00.198Z,288
2016-12-17T13:59:00.232Z,224
2016-12-17T14:00:00.250Z,220
2016-12-17T14:01:00.260Z,224
2016-12-17T14:02:00.276Z,216
2016-12-17T14:03:15.209Z,204
2016-12-17T14:04:00.308Z,196
2016-12-17T14:05:15.244Z,192
2016-12-17T14:06:00.344Z,192
2016-12-17T14:07:00.357Z,188
2016-12-17T14:08:00.369Z,180
2016-12-17T14:09:00.382Z,180
2016-12-17T14:10:00.403Z,176
2016-12-17T14:11:00.413Z,172
2016-12-17T14:12:00.432Z,168
2016-12-17T14:13:00.445Z,160
2016-12-17T14:14:00.464Z,156
2016-12-17T14:16:00.492Z,156
2016-12-17T14:17:00.508Z,144
2016-12-17T14:18:00.828Z,144
2016-12-17T14:19:15.456Z,144
2016-12-17T14:20:00.576Z,140
2016-12-17T14:21:00.573Z,132
2016-12-17T14:22:15.505Z,132
2016-12-17T14:23:00.599Z,132
2016-12-17T14:24:00.614Z,128
2016-12-17T14:25:00.641Z,128
2016-12-17T14:26:15.563Z,120
2016-12-17T14:27:00.663Z,116
2016-12-17T14:28:00.681Z,112
2016-12-17T14:29:15.615Z,108
2016-12-17T14:30:00.707Z,104
2016-12-17T14:31:00.723Z,100
2016-12-17T14:32:00.755Z,96
2016-12-17T14:33:00.754Z,92
2016-12-17T14:34:00.773Z,88
2016-12-17T14:35:15.704Z,84
2016-12-17T14:36:00.802Z,80
2016-12-17T14:37:00.814Z,80
2016-12-17T14:39:00.845Z,72
2016-12-17T14:40:00.866Z,72
2016-12-17T14:41:00.874Z,68
2016-12-17T14:42:00.892Z,60
2016-12-17T14:43:15.824Z,56
2016-12-17T14:44:00.924Z,56
2016-12-17T14:45:00.938Z,52
2016-12-17T14:46:15.871Z,48
2016-12-17T14:47:01.018Z,48
2016-12-17T14:48:00.987Z,44
2016-12-17T14:49:01.003Z,44
2016-12-17T14:50:15.934Z,40
2016-12-17T14:51:01.036Z,36
2016-12-17T14:52:01.077Z,32
2016-12-17T14:53:01.061Z,32
2016-12-17T14:54:15.997Z,28
2016-12-17T14:55:01.096Z,28
2016-12-17T14:56:16.027Z,20
2016-12-17T14:57:01.124Z,20
2016-12-17T14:58:01.148Z,20
2016-12-17T14:59:01.153Z,20
2016-12-17T15:00:16.101Z,16
2016-12-17T15:01:16.104Z,16
2016-12-17T15:03:01.216Z,12
2016-12-17T15:05:01.252Z,8
2016-12-17T15:06:01.263Z,8